sensor_id;sensor_type;location;lat;lon;timestamp;pressure;altitude;pressure_sealevel;temperature;humidity
74529;BME280;63009;52.584;5.932;2023-11-19T00:00:09;100389.75;;;13.81;100.00
74529;BME280;63009;52.584;5.932;2023-11-19T00:02:39;100382.97;;;13.88;100.00
74529;BME280;63009;52.584;5.932;2023-11-19T00:05:04;100380.56;;;13.85;100.00
74529;BME280;63009;52.584;5.932;2023-11-19T00:07:31;100386.72;;;13.86;100.00
74529;BME280;63009;52.584;5.932;2023-11-19T00:09:57;100389.63;;;13.94;100.00
74529;BME280;63009;52.584;5.932;2023-11-19T00:12:22;100378.88;;;13.95;100.00
74529;BME280;63009;52.584;5.932;2023-11-19T00:14:47;100378.16;;;13.93;100.00
74529;BME280;63009;52.584;5.932;2023-11-19T00:17:12;100371.13;;;14.04;100.00
74529;BME280;63009;52.584;5.932;2023-11-19T00:19:38;100373.19;;;14.00;100.00
74529;BME280;63009;52.584;5.932;2023-11-19T00:22:03;100361.44;;;14.14;100.00
74529;BME280;63009;52.584;5.932;2023-11-19T00:24:29;100368.81;;;14.10;100.00
74529;BME280;63009;52.584;5.932;2023-11-19T00:26:55;100355.75;;;14.18;100.00
74529;BME280;63009;52.584;5.932;2023-11-19T00:29:21;100341.75;;;14.05;100.00
74529;BME280;63009;52.584;5.932;2023-11-19T00:31:46;100336.09;;;14.10;100.00
74529;BME280;63009;52.584;5.932;2023-11-19T00:34:12;100341.16;;;14.13;100.00
74529;BME280;63009;52.584;5.932;2023-11-19T00:36:37;100347.06;;;14.05;100.00
74529;BME280;63009;52.584;5.932;2023-11-19T00:39:02;100333.22;;;13.90;100.00
74529;BME280;63009;52.584;5.932;2023-11-19T00:41:28;100326.47;;;13.86;100.00
74529;BME280;63009;52.584;5.932;2023-11-19T00:43:53;100323.53;;;14.01;100.00
74529;BME280;63009;52.584;5.932;2023-11-19T00:46:18;100316.59;;;14.20;100.00
74529;BME280;63009;52.584;5.932;2023-11-19T00:48:44;100323.00;;;14.18;100.00
74529;BME280;63009;52.584;5.932;2023-11-19T00:51:11;100316.72;;;14.19;100.00
74529;BME280;63009;52.584;5.932;2023-11-19T00:53:36;100318.19;;;14.12;100.00
74529;BME280;63009;52.584;5.932;2023-11-19T00:56:02;100323.66;;;14.10;100.00
74529;BME280;63009;52.584;5.932;2023-11-19T00:58:27;100328.34;;;14.07;100.00
74529;BME280;63009;52.584;5.932;2023-11-19T01:00:52;100328.72;;;14.02;100.00
74529;BME280;63009;52.584;5.932;2023-11-19T01:03:18;100330.53;;;14.02;100.00
74529;BME280;63009;52.584;5.932;2023-11-19T01:05:43;100313.88;;;14.00;100.00
74529;BME280;63009;52.584;5.932;2023-11-19T01:08:09;100313.00;;;14.10;100.00
74529;BME280;63009;52.584;5.932;2023-11-19T01:10:37;100311.34;;;14.09;100.00
74529;BME280;63009;52.584;5.932;2023-11-19T01:13:02;100317.50;;;14.10;100.00
74529;BME280;63009;52.584;5.932;2023-11-19T01:15:31;100322.19;;;14.06;100.00
74529;BME280;63009;52.584;5.932;2023-11-19T01:17:56;100314.72;;;14.00;100.00
74529;BME280;63009;52.584;5.932;2023-11-19T01:20:21;100311.63;;;13.84;100.00
74529;BME280;63009;52.584;5.932;2023-11-19T01:22:47;100316.94;;;13.84;100.00
74529;BME280;63009;52.584;5.932;2023-11-19T01:25:13;100318.88;;;13.82;100.00
74529;BME280;63009;52.584;5.932;2023-11-19T01:27:39;100306.91;;;13.87;100.00
74529;BME280;63009;52.584;5.932;2023-11-19T01:30:04;100309.22;;;13.81;100.00
74529;BME280;63009;52.584;5.932;2023-11-19T01:32:31;100306.56;;;13.81;100.00
74529;BME280;63009;52.584;5.932;2023-11-19T01:34:56;100305.94;;;13.77;100.00
74529;BME280;63009;52.584;5.932;2023-11-19T01:37:21;100287.84;;;13.71;100.00
74529;BME280;63009;52.584;5.932;2023-11-19T01:39:46;100292.91;;;13.85;100.00
74529;BME280;63009;52.584;5.932;2023-11-19T01:42:12;100289.16;;;13.77;100.00
74529;BME280;63009;52.584;5.932;2023-11-19T01:44:38;100287.97;;;13.70;100.00
74529;BME280;63009;52.584;5.932;2023-11-19T01:47:03;100283.16;;;13.63;100.00
74529;BME280;63009;52.584;5.932;2023-11-19T01:49:30;100273.84;;;13.69;100.00
74529;BME280;63009;52.584;5.932;2023-11-19T01:51:57;100279.91;;;13.60;100.00
74529;BME280;63009;52.584;5.932;2023-11-19T01:54:23;100291.75;;;13.56;100.00
74529;BME280;63009;52.584;5.932;2023-11-19T01:56:49;100288.81;;;13.70;100.00
74529;BME280;63009;52.584;5.932;2023-11-19T01:59:15;100285.91;;;13.73;100.00
74529;BME280;63009;52.584;5.932;2023-11-19T02:01:42;100280.13;;;13.68;100.00
74529;BME280;63009;52.584;5.932;2023-11-19T02:04:08;100283.25;;;13.73;100.00
74529;BME280;63009;52.584;5.932;2023-11-19T02:06:34;100301.47;;;13.78;100.00
74529;BME280;63009;52.584;5.932;2023-11-19T02:08:59;100300.41;;;13.69;100.00
74529;BME280;63009;52.584;5.932;2023-11-19T02:11:25;100297.25;;;13.75;100.00
74529;BME280;63009;52.584;5.932;2023-11-19T02:13:55;100296.91;;;13.69;100.00
74529;BME280;63009;52.584;5.932;2023-11-19T02:16:20;100314.88;;;13.76;100.00
74529;BME280;63009;52.584;5.932;2023-11-19T02:18:45;100310.78;;;13.72;100.00
74529;BME280;63009;52.584;5.932;2023-11-19T02:21:10;100301.34;;;13.79;100.00
74529;BME280;63009;52.584;5.932;2023-11-19T02:23:36;100297.38;;;13.62;100.00
74529;BME280;63009;52.584;5.932;2023-11-19T02:28:48;100299.06;;;13.63;100.00
74529;BME280;63009;52.584;5.932;2023-11-19T02:31:13;100302.56;;;13.64;100.00
74529;BME280;63009;52.584;5.932;2023-11-19T02:33:39;100301.38;;;13.68;100.00
74529;BME280;63009;52.584;5.932;2023-11-19T02:36:06;100306.31;;;13.61;100.00
74529;BME280;63009;52.584;5.932;2023-11-19T02:38:35;100308.84;;;13.63;100.00
74529;BME280;63009;52.584;5.932;2023-11-19T02:41:03;100299.81;;;13.54;100.00
74529;BME280;63009;52.584;5.932;2023-11-19T02:43:31;100286.06;;;13.49;100.00
74529;BME280;63009;52.584;5.932;2023-11-19T02:46:01;100298.00;;;13.44;100.00
74529;BME280;63009;52.584;5.932;2023-11-19T02:48:26;100295.34;;;13.44;100.00
74529;BME280;63009;52.584;5.932;2023-11-19T02:50:52;100288.34;;;13.31;100.00
74529;BME280;63009;52.584;5.932;2023-11-19T02:53:17;100302.13;;;13.25;100.00
74529;BME280;63009;52.584;5.932;2023-11-19T02:55:43;100297.50;;;13.16;100.00
74529;BME280;63009;52.584;5.932;2023-11-19T02:58:13;100303.28;;;13.10;100.00
74529;BME280;63009;52.584;5.932;2023-11-19T03:00:45;100299.03;;;13.07;100.00
74529;BME280;63009;52.584;5.932;2023-11-19T03:03:17;100293.97;;;13.04;100.00
74529;BME280;63009;52.584;5.932;2023-11-19T03:05:46;100294.69;;;13.06;100.00
74529;BME280;63009;52.584;5.932;2023-11-19T03:08:12;100289.38;;;13.06;100.00
74529;BME280;63009;52.584;5.932;2023-11-19T03:10:37;100292.88;;;13.07;100.00
74529;BME280;63009;52.584;5.932;2023-11-19T03:13:03;100297.13;;;12.98;100.00
74529;BME280;63009;52.584;5.932;2023-11-19T03:15:29;100302.78;;;13.05;100.00
74529;BME280;63009;52.584;5.932;2023-11-19T03:17:54;100297.72;;;13.02;100.00
74529;BME280;63009;52.584;5.932;2023-11-19T03:20:19;100303.72;;;12.93;100.00
74529;BME280;63009;52.584;5.932;2023-11-19T03:22:46;100288.66;;;12.93;100.00
74529;BME280;63009;52.584;5.932;2023-11-19T03:25:11;100302.03;;;12.92;100.00
74529;BME280;63009;52.584;5.932;2023-11-19T03:27:38;100310.22;;;12.89;100.00
74529;BME280;63009;52.584;5.932;2023-11-19T03:30:10;100305.41;;;12.83;100.00
74529;BME280;63009;52.584;5.932;2023-11-19T03:32:36;100291.19;;;12.95;100.00
74529;BME280;63009;52.584;5.932;2023-11-19T03:35:02;100293.09;;;12.93;100.00
74529;BME280;63009;52.584;5.932;2023-11-19T03:37:29;100283.97;;;12.97;100.00
74529;BME280;63009;52.584;5.932;2023-11-19T03:39:54;100269.97;;;12.95;100.00
74529;BME280;63009;52.584;5.932;2023-11-19T03:42:22;100269.50;;;13.01;100.00
74529;BME280;63009;52.584;5.932;2023-11-19T03:44:48;100282.16;;;12.97;100.00
74529;BME280;63009;52.584;5.932;2023-11-19T03:47:14;100279.16;;;13.02;100.00
74529;BME280;63009;52.584;5.932;2023-11-19T03:49:40;100260.41;;;12.70;100.00
74529;BME280;63009;52.584;5.932;2023-11-19T03:52:05;100278.63;;;12.74;100.00
74529;BME280;63009;52.584;5.932;2023-11-19T03:54:31;100271.25;;;12.67;100.00
74529;BME280;63009;52.584;5.932;2023-11-19T03:56:58;100263.91;;;12.70;100.00
74529;BME280;63009;52.584;5.932;2023-11-19T03:59:25;100276.66;;;12.65;100.00
74529;BME280;63009;52.584;5.932;2023-11-19T04:01:50;100284.03;;;12.73;100.00
74529;BME280;63009;52.584;5.932;2023-11-19T04:04:16;100275.59;;;12.68;100.00
74529;BME280;63009;52.584;5.932;2023-11-19T04:06:41;100273.03;;;12.55;100.00
74529;BME280;63009;52.584;5.932;2023-11-19T04:09:07;100277.97;;;12.60;100.00
74529;BME280;63009;52.584;5.932;2023-11-19T04:11:32;100285.75;;;12.50;100.00
74529;BME280;63009;52.584;5.932;2023-11-19T04:13:58;100278.53;;;12.52;100.00
74529;BME280;63009;52.584;5.932;2023-11-19T04:16:27;100276.66;;;12.54;100.00
74529;BME280;63009;52.584;5.932;2023-11-19T04:18:57;100267.72;;;12.55;100.00
74529;BME280;63009;52.584;5.932;2023-11-19T04:21:23;100276.47;;;12.44;100.00
74529;BME280;63009;52.584;5.932;2023-11-19T04:23:49;100272.88;;;12.45;100.00
74529;BME280;63009;52.584;5.932;2023-11-19T04:26:14;100261.78;;;12.40;100.00
74529;BME280;63009;52.584;5.932;2023-11-19T04:28:40;100279.84;;;12.46;100.00
74529;BME280;63009;52.584;5.932;2023-11-19T04:31:06;100284.59;;;12.54;100.00
74529;BME280;63009;52.584;5.932;2023-11-19T04:33:31;100277.22;;;12.46;100.00
74529;BME280;63009;52.584;5.932;2023-11-19T04:35:56;100287.25;;;12.54;100.00
74529;BME280;63009;52.584;5.932;2023-11-19T04:38:21;100292.75;;;12.51;100.00
74529;BME280;63009;52.584;5.932;2023-11-19T04:40:47;100280.97;;;12.55;100.00
74529;BME280;63009;52.584;5.932;2023-11-19T04:43:12;100292.75;;;12.51;100.00
74529;BME280;63009;52.584;5.932;2023-11-19T04:45:38;100294.44;;;12.52;100.00
74529;BME280;63009;52.584;5.932;2023-11-19T04:48:05;100296.38;;;12.50;100.00
74529;BME280;63009;52.584;5.932;2023-11-19T04:50:30;100299.53;;;12.55;100.00
74529;BME280;63009;52.584;5.932;2023-11-19T04:52:55;100288.53;;;12.48;100.00
74529;BME280;63009;52.584;5.932;2023-11-19T04:55:23;100300.09;;;12.47;100.00
74529;BME280;63009;52.584;5.932;2023-11-19T04:57:48;100294.06;;;12.45;100.00
74529;BME280;63009;52.584;5.932;2023-11-19T05:00:14;100300.34;;;12.44;100.00
74529;BME280;63009;52.584;5.932;2023-11-19T05:02:39;100284.59;;;12.54;100.00
74529;BME280;63009;52.584;5.932;2023-11-19T05:05:05;100288.09;;;12.55;100.00
74529;BME280;63009;52.584;5.932;2023-11-19T05:07:30;100293.63;;;12.63;100.00
74529;BME280;63009;52.584;5.932;2023-11-19T05:09:56;100289.22;;;12.74;100.00
74529;BME280;63009;52.584;5.932;2023-11-19T05:12:21;100292.84;;;12.73;100.00
74529;BME280;63009;52.584;5.932;2023-11-19T05:14:48;100276.97;;;12.49;100.00
74529;BME280;63009;52.584;5.932;2023-11-19T05:17:16;100281.19;;;12.52;100.00
74529;BME280;63009;52.584;5.932;2023-11-19T05:19:43;100282.44;;;12.59;100.00
74529;BME280;63009;52.584;5.932;2023-11-19T05:22:08;100270.38;;;12.55;100.00
74529;BME280;63009;52.584;5.932;2023-11-19T05:24:33;100283.00;;;12.52;100.00
74529;BME280;63009;52.584;5.932;2023-11-19T05:26:59;100283.88;;;12.63;100.00
74529;BME280;63009;52.584;5.932;2023-11-19T05:29:24;100297.91;;;12.41;100.00
74529;BME280;63009;52.584;5.932;2023-11-19T05:31:49;100296.00;;;12.43;100.00
74529;BME280;63009;52.584;5.932;2023-11-19T05:34:14;100299.94;;;12.38;100.00
74529;BME280;63009;52.584;5.932;2023-11-19T05:36:41;100292.34;;;12.33;100.00
74529;BME280;63009;52.584;5.932;2023-11-19T05:39:06;100304.31;;;12.39;100.00
74529;BME280;63009;52.584;5.932;2023-11-19T05:41:32;100309.53;;;12.28;100.00
74529;BME280;63009;52.584;5.932;2023-11-19T05:43:57;100310.16;;;12.31;100.00
74529;BME280;63009;52.584;5.932;2023-11-19T05:46:22;100317.56;;;12.39;100.00
74529;BME280;63009;52.584;5.932;2023-11-19T05:48:48;100298.09;;;12.27;100.00
74529;BME280;63009;52.584;5.932;2023-11-19T05:51:14;100318.28;;;12.41;100.00
74529;BME280;63009;52.584;5.932;2023-11-19T05:53:40;100323.78;;;12.38;100.00
74529;BME280;63009;52.584;5.932;2023-11-19T05:56:06;100320.19;;;12.39;100.00
74529;BME280;63009;52.584;5.932;2023-11-19T05:58:34;100317.09;;;12.45;100.00
74529;BME280;63009;52.584;5.932;2023-11-19T06:01:01;100320.41;;;12.36;100.00
74529;BME280;63009;52.584;5.932;2023-11-19T06:03:26;100314.25;;;12.35;100.00
74529;BME280;63009;52.584;5.932;2023-11-19T06:05:52;100317.44;;;12.40;100.00
74529;BME280;63009;52.584;5.932;2023-11-19T06:08:17;100313.34;;;12.47;100.00
74529;BME280;63009;52.584;5.932;2023-11-19T06:10:44;100300.88;;;12.37;100.00
74529;BME280;63009;52.584;5.932;2023-11-19T06:13:11;100311.50;;;12.37;100.00
74529;BME280;63009;52.584;5.932;2023-11-19T06:15:37;100317.44;;;12.40;100.00
74529;BME280;63009;52.584;5.932;2023-11-19T06:18:03;100310.31;;;12.41;100.00
74529;BME280;63009;52.584;5.932;2023-11-19T06:20:33;100306.75;;;12.53;100.00
74529;BME280;63009;52.584;5.932;2023-11-19T06:22:59;100317.38;;;12.53;100.00
74529;BME280;63009;52.584;5.932;2023-11-19T06:25:24;100310.81;;;12.46;100.00
74529;BME280;63009;52.584;5.932;2023-11-19T06:27:50;100314.81;;;12.52;100.00
74529;BME280;63009;52.584;5.932;2023-11-19T06:30:16;100314.91;;;12.50;100.00
74529;BME280;63009;52.584;5.932;2023-11-19T06:32:42;100322.25;;;12.46;100.00
74529;BME280;63009;52.584;5.932;2023-11-19T06:35:07;100307.69;;;12.41;100.00
74529;BME280;63009;52.584;5.932;2023-11-19T06:37:33;100297.63;;;12.33;100.00
74529;BME280;63009;52.584;5.932;2023-11-19T06:39:59;100322.50;;;12.43;100.00
74529;BME280;63009;52.584;5.932;2023-11-19T06:42:24;100311.31;;;12.51;100.00
74529;BME280;63009;52.584;5.932;2023-11-19T06:44:49;100308.41;;;12.43;100.00
74529;BME280;63009;52.584;5.932;2023-11-19T06:47:14;100314.56;;;12.43;100.00
74529;BME280;63009;52.584;5.932;2023-11-19T06:49:40;100320.81;;;12.42;100.00
74529;BME280;63009;52.584;5.932;2023-11-19T06:52:05;100316.53;;;12.29;100.00
74529;BME280;63009;52.584;5.932;2023-11-19T06:54:30;100317.19;;;12.43;100.00
74529;BME280;63009;52.584;5.932;2023-11-19T06:56:56;100312.44;;;12.36;100.00
74529;BME280;63009;52.584;5.932;2023-11-19T06:59:22;100309.31;;;12.31;100.00
74529;BME280;63009;52.584;5.932;2023-11-19T07:01:48;100320.91;;;12.17;100.00
74529;BME280;63009;52.584;5.932;2023-11-19T07:04:13;100316.81;;;12.13;100.00
74529;BME280;63009;52.584;5.932;2023-11-19T07:06:39;100328.88;;;12.17;100.00
74529;BME280;63009;52.584;5.932;2023-11-19T07:09:07;100336.47;;;12.22;100.00
74529;BME280;63009;52.584;5.932;2023-11-19T07:11:39;100334.41;;;12.14;100.00
74529;BME280;63009;52.584;5.932;2023-11-19T07:14:05;100324.34;;;12.06;100.00
74529;BME280;63009;52.584;5.932;2023-11-19T07:16:34;100320.44;;;12.12;100.00
74529;BME280;63009;52.584;5.932;2023-11-19T07:19:03;100333.72;;;11.99;100.00
74529;BME280;63009;52.584;5.932;2023-11-19T07:21:29;100331.63;;;12.15;100.00
74529;BME280;63009;52.584;5.932;2023-11-19T07:23:55;100336.09;;;12.15;100.00
74529;BME280;63009;52.584;5.932;2023-11-19T07:26:21;100341.50;;;12.13;100.00
74529;BME280;63009;52.584;5.932;2023-11-19T07:28:47;100340.13;;;12.08;100.00
74529;BME280;63009;52.584;5.932;2023-11-19T07:31:13;100356.09;;;12.19;100.00
74529;BME280;63009;52.584;5.932;2023-11-19T07:33:39;100355.66;;;12.25;100.00
74529;BME280;63009;52.584;5.932;2023-11-19T07:36:04;100367.25;;;12.11;100.00
74529;BME280;63009;52.584;5.932;2023-11-19T07:38:30;100358.84;;;12.17;100.00
74529;BME280;63009;52.584;5.932;2023-11-19T07:40:56;100353.94;;;12.24;100.00
74529;BME280;63009;52.584;5.932;2023-11-19T07:43:21;100361.16;;;12.22;100.00
74529;BME280;63009;52.584;5.932;2023-11-19T07:45:46;100359.03;;;12.27;100.00
74529;BME280;63009;52.584;5.932;2023-11-19T07:48:12;100364.97;;;12.31;100.00
74529;BME280;63009;52.584;5.932;2023-11-19T07:50:39;100387.63;;;12.35;100.00
74529;BME280;63009;52.584;5.932;2023-11-19T07:53:07;100377.25;;;12.32;100.00
74529;BME280;63009;52.584;5.932;2023-11-19T07:55:34;100383.03;;;12.37;100.00
74529;BME280;63009;52.584;5.932;2023-11-19T07:57:59;100374.25;;;12.36;100.00
74529;BME280;63009;52.584;5.932;2023-11-19T08:00:24;100382.19;;;12.36;100.00
74529;BME280;63009;52.584;5.932;2023-11-19T08:02:49;100374.66;;;12.43;100.00
74529;BME280;63009;52.584;5.932;2023-11-19T08:05:15;100370.94;;;12.45;100.00
74529;BME280;63009;52.584;5.932;2023-11-19T08:07:40;100380.34;;;12.49;100.00
74529;BME280;63009;52.584;5.932;2023-11-19T08:10:06;100376.34;;;12.44;100.00
74529;BME280;63009;52.584;5.932;2023-11-19T08:12:35;100357.81;;;12.44;100.00
74529;BME280;63009;52.584;5.932;2023-11-19T08:15:00;100365.81;;;12.55;100.00
74529;BME280;63009;52.584;5.932;2023-11-19T08:17:25;100371.84;;;12.57;100.00
74529;BME280;63009;52.584;5.932;2023-11-19T08:19:51;100366.25;;;12.49;100.00
74529;BME280;63009;52.584;5.932;2023-11-19T08:22:16;100366.41;;;12.59;100.00
74529;BME280;63009;52.584;5.932;2023-11-19T08:24:42;100375.22;;;12.59;100.00
74529;BME280;63009;52.584;5.932;2023-11-19T08:27:08;100371.59;;;12.60;100.00
74529;BME280;63009;52.584;5.932;2023-11-19T08:29:33;100368.47;;;12.55;100.00
74529;BME280;63009;52.584;5.932;2023-11-19T08:32:00;100362.50;;;12.52;100.00
74529;BME280;63009;52.584;5.932;2023-11-19T08:34:27;100373.75;;;12.55;100.00
74529;BME280;63009;52.584;5.932;2023-11-19T08:36:52;100359.13;;;12.49;100.00
74529;BME280;63009;52.584;5.932;2023-11-19T08:39:21;100373.41;;;12.60;100.00
74529;BME280;63009;52.584;5.932;2023-11-19T08:41:47;100371.53;;;12.73;100.00
74529;BME280;63009;52.584;5.932;2023-11-19T08:44:13;100371.66;;;12.71;100.00
74529;BME280;63009;52.584;5.932;2023-11-19T08:46:39;100373.28;;;12.61;100.00
74529;BME280;63009;52.584;5.932;2023-11-19T08:49:05;100364.91;;;12.67;100.00
74529;BME280;63009;52.584;5.932;2023-11-19T08:51:30;100363.66;;;12.60;100.00
74529;BME280;63009;52.584;5.932;2023-11-19T08:53:56;100371.66;;;12.71;100.00
74529;BME280;63009;52.584;5.932;2023-11-19T08:56:22;100366.84;;;12.76;100.00
74529;BME280;63009;52.584;5.932;2023-11-19T08:58:48;100356.13;;;12.78;100.00
74529;BME280;63009;52.584;5.932;2023-11-19T09:01:13;100370.00;;;12.82;100.00
74529;BME280;63009;52.584;5.932;2023-11-19T09:03:38;100370.00;;;12.82;100.00
74529;BME280;63009;52.584;5.932;2023-11-19T09:06:04;100368.09;;;12.84;100.00
74529;BME280;63009;52.584;5.932;2023-11-19T09:08:29;100373.41;;;12.84;100.00
74529;BME280;63009;52.584;5.932;2023-11-19T09:10:54;100370.63;;;12.85;100.00
74529;BME280;63009;52.584;5.932;2023-11-19T09:13:20;100369.06;;;12.94;100.00
74529;BME280;63009;52.584;5.932;2023-11-19T09:15:45;100371.88;;;13.03;100.00
74529;BME280;63009;52.584;5.932;2023-11-19T09:18:10;100383.84;;;13.09;100.00
74529;BME280;63009;52.584;5.932;2023-11-19T09:20:36;100380.22;;;13.10;100.00
74529;BME280;63009;52.584;5.932;2023-11-19T09:23:04;100376.25;;;13.16;100.00
74529;BME280;63009;52.584;5.932;2023-11-19T09:25:30;100373.84;;;13.13;100.00
74529;BME280;63009;52.584;5.932;2023-11-19T09:27:55;100383.25;;;13.17;100.00
74529;BME280;63009;52.584;5.932;2023-11-19T09:30:21;100383.03;;;13.20;100.00
74529;BME280;63009;52.584;5.932;2023-11-19T09:32:46;100385.69;;;13.20;100.00
74529;BME280;63009;52.584;5.932;2023-11-19T09:35:11;100373.16;;;13.22;100.00
74529;BME280;63009;52.584;5.932;2023-11-19T09:37:39;100384.00;;;13.19;100.00
74529;BME280;63009;52.584;5.932;2023-11-19T09:40:05;100380.50;;;13.18;100.00
74529;BME280;63009;52.584;5.932;2023-11-19T09:42:43;100368.13;;;13.06;100.00
74529;BME280;63009;52.584;5.932;2023-11-19T09:45:14;100378.56;;;13.20;100.00
74529;BME280;63009;52.584;5.932;2023-11-19T09:47:43;100374.84;;;13.23;100.00
74529;BME280;63009;52.584;5.932;2023-11-19T09:50:16;100371.00;;;13.27;100.00
74529;BME280;63009;52.584;5.932;2023-11-19T09:52:42;100375.34;;;13.28;100.00
74529;BME280;63009;52.584;5.932;2023-11-19T09:55:07;100371.34;;;13.22;100.00
74529;BME280;63009;52.584;5.932;2023-11-19T09:57:33;100370.72;;;13.19;100.00
74529;BME280;63009;52.584;5.932;2023-11-19T10:00:00;100365.81;;;13.25;100.00
74529;BME280;63009;52.584;5.932;2023-11-19T10:02:26;100370.75;;;13.30;100.00
74529;BME280;63009;52.584;5.932;2023-11-19T10:04:54;100376.53;;;13.35;100.00
74529;BME280;63009;52.584;5.932;2023-11-19T10:07:19;100374.50;;;13.27;100.00
74529;BME280;63009;52.584;5.932;2023-11-19T10:09:46;100372.59;;;13.41;100.00
74529;BME280;63009;52.584;5.932;2023-11-19T10:12:12;100376.41;;;13.36;100.00
74529;BME280;63009;52.584;5.932;2023-11-19T10:14:37;100368.47;;;13.36;100.00
74529;BME280;63009;52.584;5.932;2023-11-19T10:17:07;100371.13;;;13.48;100.00
74529;BME280;63009;52.584;5.932;2023-11-19T10:19:32;100366.44;;;13.62;100.00
74529;BME280;63009;52.584;5.932;2023-11-19T10:22:03;100365.34;;;13.54;100.00
74529;BME280;63009;52.584;5.932;2023-11-19T10:24:32;100357.38;;;13.65;100.00
74529;BME280;63009;52.584;5.932;2023-11-19T10:26:59;100369.34;;;13.71;100.00
74529;BME280;63009;52.584;5.932;2023-11-19T10:29:24;100374.66;;;13.71;100.00
74529;BME280;63009;52.584;5.932;2023-11-19T10:31:56;100377.91;;;13.74;100.00
74529;BME280;63009;52.584;5.932;2023-11-19T10:34:26;100358.84;;;13.58;100.00
74529;BME280;63009;52.584;5.932;2023-11-19T10:36:52;100366.56;;;13.61;100.00
74529;BME280;63009;52.584;5.932;2023-11-19T10:39:18;100360.53;;;13.59;100.00
74529;BME280;63009;52.584;5.932;2023-11-19T10:41:43;100359.69;;;13.58;100.00
74529;BME280;63009;52.584;5.932;2023-11-19T10:44:09;100370.06;;;13.61;100.00
74529;BME280;63009;52.584;5.932;2023-11-19T10:46:38;100359.06;;;13.44;100.00
74529;BME280;63009;52.584;5.932;2023-11-19T10:49:04;100368.59;;;13.46;100.00
74529;BME280;63009;52.584;5.932;2023-11-19T10:51:31;100360.38;;;13.49;100.00
74529;BME280;63009;52.584;5.932;2023-11-19T10:54:04;100377.28;;;13.48;100.00
74529;BME280;63009;52.584;5.932;2023-11-19T10:56:33;100356.16;;;13.24;100.00
74529;BME280;63009;52.584;5.932;2023-11-19T10:58:59;100377.41;;;13.24;100.00
74529;BME280;63009;52.584;5.932;2023-11-19T11:01:39;100359.97;;;13.09;100.00
74529;BME280;63009;52.584;5.932;2023-11-19T11:04:13;100371.31;;;13.11;100.00
74529;BME280;63009;52.584;5.932;2023-11-19T11:06:40;100366.13;;;13.10;100.00
74529;BME280;63009;52.584;5.932;2023-11-19T11:09:07;100363.63;;;13.19;100.00
74529;BME280;63009;52.584;5.932;2023-11-19T11:11:37;100350.53;;;13.05;100.00
74529;BME280;63009;52.584;5.932;2023-11-19T11:14:04;100356.91;;;13.02;100.00
74529;BME280;63009;52.584;5.932;2023-11-19T11:16:30;100358.38;;;12.95;100.00
74529;BME280;63009;52.584;5.932;2023-11-19T11:18:57;100360.91;;;12.97;100.00
74529;BME280;63009;52.584;5.932;2023-11-19T11:21:25;100363.91;;;13.03;100.00
74529;BME280;63009;52.584;5.932;2023-11-19T11:24:17;100361.97;;;13.05;100.00
74529;BME280;63009;52.584;5.932;2023-11-19T11:29:37;100364.75;;;13.04;100.00
74529;BME280;63009;52.584;5.932;2023-11-19T11:32:44;100361.13;;;13.05;100.00
74529;BME280;63009;52.584;5.932;2023-11-19T11:38:07;100354.75;;;12.96;100.00
74529;BME280;63009;52.584;5.932;2023-11-19T11:40:34;100350.53;;;13.05;100.00
74529;BME280;63009;52.584;5.932;2023-11-19T11:42:59;100359.91;;;12.87;100.00
74529;BME280;63009;52.584;5.932;2023-11-19T11:45:38;100352.41;;;12.92;100.00
74529;BME280;63009;52.584;5.932;2023-11-19T11:50:47;100349.53;;;12.95;100.00
74529;BME280;63009;52.584;5.932;2023-11-19T11:53:14;100348.16;;;13.13;100.00
74529;BME280;63009;52.584;5.932;2023-11-19T11:58:13;100350.44;;;13.18;100.00
74529;BME280;63009;52.584;5.932;2023-11-19T12:00:40;100345.03;;;13.19;100.00
74529;BME280;63009;52.584;5.932;2023-11-19T12:03:07;100339.59;;;13.10;100.00
74529;BME280;63009;52.584;5.932;2023-11-19T12:05:33;100346.22;;;13.15;100.00
74529;BME280;63009;52.584;5.932;2023-11-19T12:08:04;100348.16;;;13.13;100.00
74529;BME280;63009;52.584;5.932;2023-11-19T12:10:36;100343.69;;;13.14;100.00
74529;BME280;63009;52.584;5.932;2023-11-19T12:13:04;100351.66;;;13.14;100.00
74529;BME280;63009;52.584;5.932;2023-11-19T12:15:32;100352.38;;;13.16;100.00
74529;BME280;63009;52.584;5.932;2023-11-19T12:17:58;100344.78;;;13.22;100.00
74529;BME280;63009;52.584;5.932;2023-11-19T12:20:24;100342.53;;;13.29;100.00
74529;BME280;63009;52.584;5.932;2023-11-19T12:22:51;100334.94;;;13.24;100.00
74529;BME280;63009;52.584;5.932;2023-11-19T12:25:17;100332.75;;;13.29;100.00
74529;BME280;63009;52.584;5.932;2023-11-19T12:27:47;100343.75;;;13.25;100.00
74529;BME280;63009;52.584;5.932;2023-11-19T12:30:31;100333.72;;;13.28;100.00
74529;BME280;63009;52.584;5.932;2023-11-19T12:32:56;100330.34;;;13.26;100.00
74529;BME280;63009;52.584;5.932;2023-11-19T12:35:22;100345.06;;;13.30;100.00
74529;BME280;63009;52.584;5.932;2023-11-19T12:37:49;100343.38;;;13.41;100.00
74529;BME280;63009;52.584;5.932;2023-11-19T12:40:20;100335.88;;;13.34;100.00
74529;BME280;63009;52.584;5.932;2023-11-19T12:42:49;100347.22;;;13.36;100.00
74529;BME280;63009;52.584;5.932;2023-11-19T12:45:15;100338.66;;;13.33;100.00
74529;BME280;63009;52.584;5.932;2023-11-19T12:47:42;100336.50;;;13.38;100.00
74529;BME280;63009;52.584;5.932;2023-11-19T12:50:08;100347.97;;;13.39;100.00